sensor_id;sensor_type;location;lat;lon;timestamp;temperature;humidity
27561;DHT22;15003;47.476;11.990;2022-08-25T00:00:45;23.40;50.70
27561;DHT22;15003;47.476;11.990;2022-08-25T00:03:13;23.30;50.80
27561;DHT22;15003;47.476;11.990;2022-08-25T00:05:40;23.30;50.80
27561;DHT22;15003;47.476;11.990;2022-08-25T00:08:06;23.20;50.90
27561;DHT22;15003;47.476;11.990;2022-08-25T00:10:34;23.20;51.10
27561;DHT22;15003;47.476;11.990;2022-08-25T00:13:02;23.20;51.10
27561;DHT22;15003;47.476;11.990;2022-08-25T00:15:29;23.20;51.10
27561;DHT22;15003;47.476;11.990;2022-08-25T00:17:55;23.20;51.00
27561;DHT22;15003;47.476;11.990;2022-08-25T00:20:21;23.20;51.10
27561;DHT22;15003;47.476;11.990;2022-08-25T00:22:47;23.10;51.20
27561;DHT22;15003;47.476;11.990;2022-08-25T00:25:13;23.10;51.30
27561;DHT22;15003;47.476;11.990;2022-08-25T00:27:39;23.00;51.40
27561;DHT22;15003;47.476;11.990;2022-08-25T00:30:05;23.00;51.50
27561;DHT22;15003;47.476;11.990;2022-08-25T00:32:32;23.00;51.50
27561;DHT22;15003;47.476;11.990;2022-08-25T00:34:57;23.00;51.50
27561;DHT22;15003;47.476;11.990;2022-08-25T00:37:23;23.00;51.40
27561;DHT22;15003;47.476;11.990;2022-08-25T00:39:49;23.00;51.40
27561;DHT22;15003;47.476;11.990;2022-08-25T00:42:15;23.00;51.50
27561;DHT22;15003;47.476;11.990;2022-08-25T00:44:40;23.00;51.50
27561;DHT22;15003;47.476;11.990;2022-08-25T00:47:06;22.90;51.60
27561;DHT22;15003;47.476;11.990;2022-08-25T00:52:21;22.90;51.90
27561;DHT22;15003;47.476;11.990;2022-08-25T00:54:50;22.90;52.00
27561;DHT22;15003;47.476;11.990;2022-08-25T00:57:32;22.80;51.90
27561;DHT22;15003;47.476;11.990;2022-08-25T01:00:04;22.80;52.10
27561;DHT22;15003;47.476;11.990;2022-08-25T01:02:35;22.80;51.90
27561;DHT22;15003;47.476;11.990;2022-08-25T01:05:02;22.80;51.90
27561;DHT22;15003;47.476;11.990;2022-08-25T01:07:29;22.80;51.80
27561;DHT22;15003;47.476;11.990;2022-08-25T01:09:54;22.80;51.80
27561;DHT22;15003;47.476;11.990;2022-08-25T01:12:21;22.80;51.90
27561;DHT22;15003;47.476;11.990;2022-08-25T01:14:48;22.70;52.20
27561;DHT22;15003;47.476;11.990;2022-08-25T01:17:14;22.70;51.90
27561;DHT22;15003;47.476;11.990;2022-08-25T01:19:40;22.70;51.90
27561;DHT22;15003;47.476;11.990;2022-08-25T01:22:06;22.70;52.00
27561;DHT22;15003;47.476;11.990;2022-08-25T01:24:53;22.70;52.00
27561;DHT22;15003;47.476;11.990;2022-08-25T01:27:24;22.70;52.40
27561;DHT22;15003;47.476;11.990;2022-08-25T01:29:49;22.60;52.00
27561;DHT22;15003;47.476;11.990;2022-08-25T01:32:15;22.60;52.00
27561;DHT22;15003;47.476;11.990;2022-08-25T01:34:43;22.60;52.00
27561;DHT22;15003;47.476;11.990;2022-08-25T01:37:11;22.60;52.20
27561;DHT22;15003;47.476;11.990;2022-08-25T01:39:39;22.60;52.30
27561;DHT22;15003;47.476;11.990;2022-08-25T01:42:23;22.60;52.40
27561;DHT22;15003;47.476;11.990;2022-08-25T01:44:53;22.60;52.60
27561;DHT22;15003;47.476;11.990;2022-08-25T01:47:19;22.50;52.20
27561;DHT22;15003;47.476;11.990;2022-08-25T01:49:45;22.50;52.30
27561;DHT22;15003;47.476;11.990;2022-08-25T01:52:22;22.50;52.30
27561;DHT22;15003;47.476;11.990;2022-08-25T01:54:49;22.50;52.40
27561;DHT22;15003;47.476;11.990;2022-08-25T01:57:16;22.50;52.40
27561;DHT22;15003;47.476;11.990;2022-08-25T01:59:42;22.50;52.50
27561;DHT22;15003;47.476;11.990;2022-08-25T02:02:07;22.50;52.60
27561;DHT22;15003;47.476;11.990;2022-08-25T02:04:33;22.40;52.70
27561;DHT22;15003;47.476;11.990;2022-08-25T02:07:01;22.50;52.70
27561;DHT22;15003;47.476;11.990;2022-08-25T02:09:28;22.40;52.70
27561;DHT22;15003;47.476;11.990;2022-08-25T02:11:54;22.40;52.70
27561;DHT22;15003;47.476;11.990;2022-08-25T02:14:20;22.40;52.70
27561;DHT22;15003;47.476;11.990;2022-08-25T02:16:50;22.40;52.80
27561;DHT22;15003;47.476;11.990;2022-08-25T02:19:18;22.40;52.70
27561;DHT22;15003;47.476;11.990;2022-08-25T02:21:45;22.40;52.80
27561;DHT22;15003;47.476;11.990;2022-08-25T02:24:11;22.40;52.80
27561;DHT22;15003;47.476;11.990;2022-08-25T02:26:37;22.30;52.70
27561;DHT22;15003;47.476;11.990;2022-08-25T02:29:05;22.40;52.70
27561;DHT22;15003;47.476;11.990;2022-08-25T02:31:31;22.30;52.60
27561;DHT22;15003;47.476;11.990;2022-08-25T02:33:56;22.30;52.50
27561;DHT22;15003;47.476;11.990;2022-08-25T02:36:23;22.30;52.60
27561;DHT22;15003;47.476;11.990;2022-08-25T02:38:49;22.30;52.60
27561;DHT22;15003;47.476;11.990;2022-08-25T02:41:21;22.20;52.60
27561;DHT22;15003;47.476;11.990;2022-08-25T02:43:48;22.20;52.70
27561;DHT22;15003;47.476;11.990;2022-08-25T02:46:17;22.10;52.50
27561;DHT22;15003;47.476;11.990;2022-08-25T02:48:45;22.10;52.60
27561;DHT22;15003;47.476;11.990;2022-08-25T02:51:12;22.10;52.60
27561;DHT22;15003;47.476;11.990;2022-08-25T02:53:40;22.00;52.60
27561;DHT22;15003;47.476;11.990;2022-08-25T02:56:08;22.00;52.80
27561;DHT22;15003;47.476;11.990;2022-08-25T02:58:36;22.00;52.80
27561;DHT22;15003;47.476;11.990;2022-08-25T03:01:03;21.90;52.80
27561;DHT22;15003;47.476;11.990;2022-08-25T03:03:29;21.90;53.00
27561;DHT22;15003;47.476;11.990;2022-08-25T03:05:55;21.90;53.10
27561;DHT22;15003;47.476;11.990;2022-08-25T03:08:21;21.90;53.10
27561;DHT22;15003;47.476;11.990;2022-08-25T03:10:47;21.90;53.20
27561;DHT22;15003;47.476;11.990;2022-08-25T03:13:13;21.80;53.30
27561;DHT22;15003;47.476;11.990;2022-08-25T03:15:39;21.80;53.40
27561;DHT22;15003;47.476;11.990;2022-08-25T03:18:05;21.80;53.40
27561;DHT22;15003;47.476;11.990;2022-08-25T03:20:31;21.80;53.30
27561;DHT22;15003;47.476;11.990;2022-08-25T03:22:57;21.80;53.40
27561;DHT22;15003;47.476;11.990;2022-08-25T03:25:23;21.80;53.40
27561;DHT22;15003;47.476;11.990;2022-08-25T03:27:48;21.80;53.30
27561;DHT22;15003;47.476;11.990;2022-08-25T03:30:14;21.80;53.20
27561;DHT22;15003;47.476;11.990;2022-08-25T03:32:40;21.80;53.10
27561;DHT22;15003;47.476;11.990;2022-08-25T03:35:07;21.80;53.10
27561;DHT22;15003;47.476;11.990;2022-08-25T03:37:34;21.80;53.10
27561;DHT22;15003;47.476;11.990;2022-08-25T03:40:07;21.70;53.10
27561;DHT22;15003;47.476;11.990;2022-08-25T03:42:35;21.70;53.20
27561;DHT22;15003;47.476;11.990;2022-08-25T03:45:06;21.70;53.10
27561;DHT22;15003;47.476;11.990;2022-08-25T03:47:32;21.60;53.20
27561;DHT22;15003;47.476;11.990;2022-08-25T03:49:58;21.60;53.40
27561;DHT22;15003;47.476;11.990;2022-08-25T03:52:24;21.60;53.40
27561;DHT22;15003;47.476;11.990;2022-08-25T03:54:50;21.50;53.60
27561;DHT22;15003;47.476;11.990;2022-08-25T03:57:16;21.50;53.60
27561;DHT22;15003;47.476;11.990;2022-08-25T03:59:42;21.50;53.70
27561;DHT22;15003;47.476;11.990;2022-08-25T04:02:07;21.50;53.70
27561;DHT22;15003;47.476;11.990;2022-08-25T04:04:33;21.50;53.70
27561;DHT22;15003;47.476;11.990;2022-08-25T04:06:59;21.50;53.70
27561;DHT22;15003;47.476;11.990;2022-08-25T04:09:25;21.50;53.70
27561;DHT22;15003;47.476;11.990;2022-08-25T04:11:51;21.50;53.50
27561;DHT22;15003;47.476;11.990;2022-08-25T04:14:18;21.50;53.40
27561;DHT22;15003;47.476;11.990;2022-08-25T04:16:44;21.40;53.40
27561;DHT22;15003;47.476;11.990;2022-08-25T04:19:11;21.40;53.50
27561;DHT22;15003;47.476;11.990;2022-08-25T04:21:38;21.40;53.60
27561;DHT22;15003;47.476;11.990;2022-08-25T04:24:06;21.40;53.70
27561;DHT22;15003;47.476;11.990;2022-08-25T04:26:36;21.40;53.90
27561;DHT22;15003;47.476;11.990;2022-08-25T04:29:06;21.30;54.60
27561;DHT22;15003;47.476;11.990;2022-08-25T04:31:32;21.30;53.90
27561;DHT22;15003;47.476;11.990;2022-08-25T04:34:01;21.30;53.80
27561;DHT22;15003;47.476;11.990;2022-08-25T04:36:28;21.30;53.70
27561;DHT22;15003;47.476;11.990;2022-08-25T04:38:54;21.30;53.70
27561;DHT22;15003;47.476;11.990;2022-08-25T04:41:22;21.30;53.70
27561;DHT22;15003;47.476;11.990;2022-08-25T04:43:50;21.30;53.90
27561;DHT22;15003;47.476;11.990;2022-08-25T04:46:23;21.30;53.80
27561;DHT22;15003;47.476;11.990;2022-08-25T04:48:50;21.30;53.90
27561;DHT22;15003;47.476;11.990;2022-08-25T04:51:19;21.20;53.60
27561;DHT22;15003;47.476;11.990;2022-08-25T04:53:46;21.20;53.70
27561;DHT22;15003;47.476;11.990;2022-08-25T04:56:18;21.20;53.80
27561;DHT22;15003;47.476;11.990;2022-08-25T04:58:45;21.20;54.10
27561;DHT22;15003;47.476;11.990;2022-08-25T05:01:16;21.20;54.20
27561;DHT22;15003;47.476;11.990;2022-08-25T05:03:44;21.20;54.40
27561;DHT22;15003;47.476;11.990;2022-08-25T05:06:11;21.20;54.30
27561;DHT22;15003;47.476;11.990;2022-08-25T05:08:37;21.20;54.50
27561;DHT22;15003;47.476;11.990;2022-08-25T05:11:07;21.20;54.60
27561;DHT22;15003;47.476;11.990;2022-08-25T05:13:35;21.20;54.70
27561;DHT22;15003;47.476;11.990;2022-08-25T05:16:01;21.20;54.70
27561;DHT22;15003;47.476;11.990;2022-08-25T05:18:29;21.20;54.80
27561;DHT22;15003;47.476;11.990;2022-08-25T05:21:00;21.20;54.80
27561;DHT22;15003;47.476;11.990;2022-08-25T05:23:27;21.20;54.80
27561;DHT22;15003;47.476;11.990;2022-08-25T05:25:53;21.20;54.90
27561;DHT22;15003;47.476;11.990;2022-08-25T05:28:19;21.30;55.00
27561;DHT22;15003;47.476;11.990;2022-08-25T05:30:46;21.30;54.90
27561;DHT22;15003;47.476;11.990;2022-08-25T05:33:13;21.30;54.90
27561;DHT22;15003;47.476;11.990;2022-08-25T05:35:39;21.30;54.90
27561;DHT22;15003;47.476;11.990;2022-08-25T05:38:05;21.40;55.00
27561;DHT22;15003;47.476;11.990;2022-08-25T05:40:31;21.30;55.00
27561;DHT22;15003;47.476;11.990;2022-08-25T05:42:57;21.40;54.90
27561;DHT22;15003;47.476;11.990;2022-08-25T05:45:23;21.40;54.90
27561;DHT22;15003;47.476;11.990;2022-08-25T05:47:49;21.40;55.00
27561;DHT22;15003;47.476;11.990;2022-08-25T05:50:16;21.40;54.90
27561;DHT22;15003;47.476;11.990;2022-08-25T05:52:42;21.50;54.90
27561;DHT22;15003;47.476;11.990;2022-08-25T05:55:08;21.50;54.80
27561;DHT22;15003;47.476;11.990;2022-08-25T05:57:35;21.50;54.80
27561;DHT22;15003;47.476;11.990;2022-08-25T06:00:04;21.50;54.80
27561;DHT22;15003;47.476;11.990;2022-08-25T06:02:30;21.60;54.90
27561;DHT22;15003;47.476;11.990;2022-08-25T06:04:56;21.60;54.90
27561;DHT22;15003;47.476;11.990;2022-08-25T06:07:22;21.60;55.00
27561;DHT22;15003;47.476;11.990;2022-08-25T06:09:48;21.60;54.90
27561;DHT22;15003;47.476;11.990;2022-08-25T06:12:14;21.70;54.80
27561;DHT22;15003;47.476;11.990;2022-08-25T06:14:40;21.70;55.00
27561;DHT22;15003;47.476;11.990;2022-08-25T06:17:06;21.80;55.10
27561;DHT22;15003;47.476;11.990;2022-08-25T06:19:32;21.80;55.00
27561;DHT22;15003;47.476;11.990;2022-08-25T06:21:58;21.80;55.00
27561;DHT22;15003;47.476;11.990;2022-08-25T06:24:26;21.90;54.90
27561;DHT22;15003;47.476;11.990;2022-08-25T06:26:53;21.90;54.80
27561;DHT22;15003;47.476;11.990;2022-08-25T06:29:19;21.90;54.70
27561;DHT22;15003;47.476;11.990;2022-08-25T06:31:45;22.00;54.60
27561;DHT22;15003;47.476;11.990;2022-08-25T06:34:12;22.00;54.60
27561;DHT22;15003;47.476;11.990;2022-08-25T06:36:38;22.00;54.40
27561;DHT22;15003;47.476;11.990;2022-08-25T06:39:05;22.00;54.40
27561;DHT22;15003;47.476;11.990;2022-08-25T06:41:31;22.00;54.40
27561;DHT22;15003;47.476;11.990;2022-08-25T06:43:57;22.00;54.50
27561;DHT22;15003;47.476;11.990;2022-08-25T06:46:24;22.00;54.60
27561;DHT22;15003;47.476;11.990;2022-08-25T06:48:51;22.00;54.60
27561;DHT22;15003;47.476;11.990;2022-08-25T06:51:18;22.00;54.60
27561;DHT22;15003;47.476;11.990;2022-08-25T06:53:46;22.00;54.60
27561;DHT22;15003;47.476;11.990;2022-08-25T06:56:13;22.00;54.60
27561;DHT22;15003;47.476;11.990;2022-08-25T06:58:39;22.10;54.50
27561;DHT22;15003;47.476;11.990;2022-08-25T07:03:42;22.10;54.60
27561;DHT22;15003;47.476;11.990;2022-08-25T07:06:09;22.20;54.50
27561;DHT22;15003;47.476;11.990;2022-08-25T07:08:34;22.20;54.40
27561;DHT22;15003;47.476;11.990;2022-08-25T07:11:05;22.30;54.40
27561;DHT22;15003;47.476;11.990;2022-08-25T07:13:32;22.30;54.50
27561;DHT22;15003;47.476;11.990;2022-08-25T07:15:58;22.30;54.60
27561;DHT22;15003;47.476;11.990;2022-08-25T07:18:24;22.40;54.50
27561;DHT22;15003;47.476;11.990;2022-08-25T07:20:49;22.40;54.50
27561;DHT22;15003;47.476;11.990;2022-08-25T07:23:15;22.50;54.30
27561;DHT22;15003;47.476;11.990;2022-08-25T07:25:41;22.50;54.40
27561;DHT22;15003;47.476;11.990;2022-08-25T07:28:07;22.50;54.20
27561;DHT22;15003;47.476;11.990;2022-08-25T07:30:32;22.60;54.40
27561;DHT22;15003;47.476;11.990;2022-08-25T07:32:58;22.60;54.40
27561;DHT22;15003;47.476;11.990;2022-08-25T07:35:24;22.60;54.40
27561;DHT22;15003;47.476;11.990;2022-08-25T07:37:52;22.70;54.30
27561;DHT22;15003;47.476;11.990;2022-08-25T07:40:30;22.80;54.50
27561;DHT22;15003;47.476;11.990;2022-08-25T07:43:02;22.80;54.10
27561;DHT22;15003;47.476;11.990;2022-08-25T07:45:34;22.80;53.80
27561;DHT22;15003;47.476;11.990;2022-08-25T07:48:05;22.90;53.70
27561;DHT22;15003;47.476;11.990;2022-08-25T07:50:33;23.00;53.70
27561;DHT22;15003;47.476;11.990;2022-08-25T07:52:59;23.00;53.50
27561;DHT22;15003;47.476;11.990;2022-08-25T07:55:27;23.10;53.50
27561;DHT22;15003;47.476;11.990;2022-08-25T07:57:54;23.10;53.60
27561;DHT22;15003;47.476;11.990;2022-08-25T08:00:20;23.30;53.50
27561;DHT22;15003;47.476;11.990;2022-08-25T08:02:46;23.30;53.50
27561;DHT22;15003;47.476;11.990;2022-08-25T08:05:13;23.40;53.30
27561;DHT22;15003;47.476;11.990;2022-08-25T08:07:39;23.50;53.10
27561;DHT22;15003;47.476;11.990;2022-08-25T08:10:07;23.60;53.40
27561;DHT22;15003;47.476;11.990;2022-08-25T08:12:36;23.70;53.20
27561;DHT22;15003;47.476;11.990;2022-08-25T08:15:02;23.80;53.00
27561;DHT22;15003;47.476;11.990;2022-08-25T08:17:28;23.90;53.10
27561;DHT22;15003;47.476;11.990;2022-08-25T08:19:54;24.00;52.60
27561;DHT22;15003;47.476;11.990;2022-08-25T08:22:20;24.10;52.50
27561;DHT22;15003;47.476;11.990;2022-08-25T08:24:46;24.20;52.70
27561;DHT22;15003;47.476;11.990;2022-08-25T08:27:12;24.30;51.90
27561;DHT22;15003;47.476;11.990;2022-08-25T08:29:40;24.40;51.50
27561;DHT22;15003;47.476;11.990;2022-08-25T08:32:09;24.50;51.30
27561;DHT22;15003;47.476;11.990;2022-08-25T08:34:36;24.60;51.30
27561;DHT22;15003;47.476;11.990;2022-08-25T08:37:02;24.70;51.30
27561;DHT22;15003;47.476;11.990;2022-08-25T08:39:29;24.80;51.10
27561;DHT22;15003;47.476;11.990;2022-08-25T08:50:10;25.40;50.00
27561;DHT22;15003;47.476;11.990;2022-08-25T08:52:53;25.50;49.30
27561;DHT22;15003;47.476;11.990;2022-08-25T08:56:10;25.60;48.90
27561;DHT22;15003;47.476;11.990;2022-08-25T08:58:29;25.70;49.00
27561;DHT22;15003;47.476;11.990;2022-08-25T09:01:11;25.80;48.60
27561;DHT22;15003;47.476;11.990;2022-08-25T09:03:48;26.00;49.00
27561;DHT22;15003;47.476;11.990;2022-08-25T09:06:19;26.10;48.60
27561;DHT22;15003;47.476;11.990;2022-08-25T09:08:57;26.20;48.40
27561;DHT22;15003;47.476;11.990;2022-08-25T09:20:28;26.60;47.90
27561;DHT22;15003;47.476;11.990;2022-08-25T09:31:35;27.20;47.10
27561;DHT22;15003;47.476;11.990;2022-08-25T09:34:05;27.30;46.70
27561;DHT22;15003;47.476;11.990;2022-08-25T09:36:41;27.40;46.60
27561;DHT22;15003;47.476;11.990;2022-08-25T09:39:07;27.50;47.10
27561;DHT22;15003;47.476;11.990;2022-08-25T09:41:43;27.70;46.70
27561;DHT22;15003;47.476;11.990;2022-08-25T09:47:25;28.00;46.20
27561;DHT22;15003;47.476;11.990;2022-08-25T09:50:00;28.20;46.20
27561;DHT22;15003;47.476;11.990;2022-08-25T09:52:35;28.30;46.10
27561;DHT22;15003;47.476;11.990;2022-08-25T10:00:11;28.70;45.50
27561;DHT22;15003;47.476;11.990;2022-08-25T10:02:41;28.90;45.50
27561;DHT22;15003;47.476;11.990;2022-08-25T10:05:20;29.00;45.40
27561;DHT22;15003;47.476;11.990;2022-08-25T10:07:57;29.20;44.70
27561;DHT22;15003;47.476;11.990;2022-08-25T10:10:31;29.40;44.40
27561;DHT22;15003;47.476;11.990;2022-08-25T10:13:22;29.50;44.60
27561;DHT22;15003;47.476;11.990;2022-08-25T10:16:25;29.70;44.00
27561;DHT22;15003;47.476;11.990;2022-08-25T10:21:37;29.90;43.20
27561;DHT22;15003;47.476;11.990;2022-08-25T10:24:04;30.00;43.30
27561;DHT22;15003;47.476;11.990;2022-08-25T10:35:34;30.50;42.30
27561;DHT22;15003;47.476;11.990;2022-08-25T10:38:22;30.60;41.60
27561;DHT22;15003;47.476;11.990;2022-08-25T10:43:44;30.70;41.30
27561;DHT22;15003;47.476;11.990;2022-08-25T10:46:41;30.90;41.10
27561;DHT22;15003;47.476;11.990;2022-08-25T10:49:26;31.00;41.00
27561;DHT22;15003;47.476;11.990;2022-08-25T10:52:06;31.10;40.40
27561;DHT22;15003;47.476;11.990;2022-08-25T10:54:56;31.20;41.00
27561;DHT22;15003;47.476;11.990;2022-08-25T10:57:54;31.30;40.40
27561;DHT22;15003;47.476;11.990;2022-08-25T11:00:34;31.30;40.60
27561;DHT22;15003;47.476;11.990;2022-08-25T11:05:59;31.60;40.70
27561;DHT22;15003;47.476;11.990;2022-08-25T11:08:52;31.60;40.70
27561;DHT22;15003;47.476;11.990;2022-08-25T11:17:21;31.90;40.10
27561;DHT22;15003;47.476;11.990;2022-08-25T11:19:53;32.00;40.10
27561;DHT22;15003;47.476;11.990;2022-08-25T11:22:27;32.10;39.00
27561;DHT22;15003;47.476;11.990;2022-08-25T11:27:54;32.00;38.90
27561;DHT22;15003;47.476;11.990;2022-08-25T11:30:23;32.00;38.80
27561;DHT22;15003;47.476;11.990;2022-08-25T11:32:51;32.00;39.10
27561;DHT22;15003;47.476;11.990;2022-08-25T11:35:30;32.10;39.00
27561;DHT22;15003;47.476;11.990;2022-08-25T11:49:52;32.50;38.60
27561;DHT22;15003;47.476;11.990;2022-08-25T11:57:48;32.60;39.40
27561;DHT22;15003;47.476;11.990;2022-08-25T12:27:25;33.20;38.60
27561;DHT22;15003;47.476;11.990;2022-08-25T12:35:24;33.50;37.90
27561;DHT22;15003;47.476;11.990;2022-08-25T12:41:11;33.60;38.20
27561;DHT22;15003;47.476;11.990;2022-08-25T12:43:43;33.70;38.70
27561;DHT22;15003;47.476;11.990;2022-08-25T12:52:11;34.00;38.10
27561;DHT22;15003;47.476;11.990;2022-08-25T12:54:47;34.10;37.60
27561;DHT22;15003;47.476;11.990;2022-08-25T12:57:39;34.10;37.50
27561;DHT22;15003;47.476;11.990;2022-08-25T13:00:24;34.20;37.70
27561;DHT22;15003;47.476;11.990;2022-08-25T13:06:24;34.40;37.70
27561;DHT22;15003;47.476;11.990;2022-08-25T13:11:36;34.40;37.80
27561;DHT22;15003;47.476;11.990;2022-08-25T13:16:58;34.50;37.70
27561;DHT22;15003;47.476;11.990;2022-08-25T13:19:26;34.50;38.20
27561;DHT22;15003;47.476;11.990;2022-08-25T13:21:53;34.60;38.30
27561;DHT22;15003;47.476;11.990;2022-08-25T13:24:21;34.60;38.30
27561;DHT22;15003;47.476;11.990;2022-08-25T13:26:54;34.60;38.50
27561;DHT22;15003;47.476;11.990;2022-08-25T13:29:24;34.60;38.50
27561;DHT22;15003;47.476;11.990;2022-08-25T13:31:55;34.60;38.40
27561;DHT22;15003;47.476;11.990;2022-08-25T13:34:34;34.60;38.10
27561;DHT22;15003;47.476;11.990;2022-08-25T13:37:08;34.60;38.10
27561;DHT22;15003;47.476;11.990;2022-08-25T13:39:36;34.50;38.30
27561;DHT22;15003;47.476;11.990;2022-08-25T13:42:06;34.50;38.10
27561;DHT22;15003;47.476;11.990;2022-08-25T13:44:38;34.50;38.20
27561;DHT22;15003;47.476;11.990;2022-08-25T13:47:55;34.50;38.30
27561;DHT22;15003;47.476;11.990;2022-08-25T13:52:53;34.50;38.40
27561;DHT22;15003;47.476;11.990;2022-08-25T13:55:24;34.30;38.90
27561;DHT22;15003;47.476;11.990;2022-08-25T13:57:52;34.40;38.10
27561;DHT22;15003;47.476;11.990;2022-08-25T14:00:28;34.50;37.70
27561;DHT22;15003;47.476;11.990;2022-08-25T14:02:58;34.50;37.40
27561;DHT22;15003;47.476;11.990;2022-08-25T14:05:41;34.40;36.80
27561;DHT22;15003;47.476;11.990;2022-08-25T14:08:35;34.40;36.90
27561;DHT22;15003;47.476;11.990;2022-08-25T14:11:09;34.30;36.90
27561;DHT22;15003;47.476;11.990;2022-08-25T14:13:42;34.20;37.60
27561;DHT22;15003;47.476;11.990;2022-08-25T14:16:22;34.10;37.40
27561;DHT22;15003;47.476;11.990;2022-08-25T14:18:51;34.10;37.70
27561;DHT22;15003;47.476;11.990;2022-08-25T14:21:21;34.10;37.80
27561;DHT22;15003;47.476;11.990;2022-08-25T14:23:51;34.10;37.80
27561;DHT22;15003;47.476;11.990;2022-08-25T14:26:18;34.10;37.90
27561;DHT22;15003;47.476;11.990;2022-08-25T14:28:44;34.00;37.70
27561;DHT22;15003;47.476;11.990;2022-08-25T14:31:30;34.00;37.40
27561;DHT22;15003;47.476;11.990;2022-08-25T14:34:04;33.90;38.10
27561;DHT22;15003;47.476;11.990;2022-08-25T14:36:34;33.80;38.00
27561;DHT22;15003;47.476;11.990;2022-08-25T14:39:00;33.70;38.00
27561;DHT22;15003;47.476;11.990;2022-08-25T14:41:26;33.60;38.20
27561;DHT22;15003;47.476;11.990;2022-08-25T14:43:52;33.60;38.80
27561;DHT22;15003;47.476;11.990;2022-08-25T14:46:24;33.50;38.60
27561;DHT22;15003;47.476;11.990;2022-08-25T14:48:56;33.50;39.00
27561;DHT22;15003;47.476;11.990;2022-08-25T14:51:24;33.50;38.80
27561;DHT22;15003;47.476;11.990;2022-08-25T14:53:52;33.40;39.10
27561;DHT22;15003;47.476;11.990;2022-08-25T14:56:19;33.40;39.10
27561;DHT22;15003;47.476;11.990;2022-08-25T14:58:46;33.40;39.30
27561;DHT22;15003;47.476;11.990;2022-08-25T15:01:13;33.50;39.70
27561;DHT22;15003;47.476;11.990;2022-08-25T15:03:44;33.50;39.80
27561;DHT22;15003;47.476;11.990;2022-08-25T15:06:14;33.50;39.40
27561;DHT22;15003;47.476;11.990;2022-08-25T15:08:41;33.60;39.00
27561;DHT22;15003;47.476;11.990;2022-08-25T15:11:07;33.60;39.00
27561;DHT22;15003;47.476;11.990;2022-08-25T15:13:32;33.60;38.20
27561;DHT22;15003;47.476;11.990;2022-08-25T15:15:58;33.80;38.40
27561;DHT22;15003;47.476;11.990;2022-08-25T15:18:24;33.80;38.00
27561;DHT22;15003;47.476;11.990;2022-08-25T15:20:50;33.80;37.70
27561;DHT22;15003;47.476;11.990;2022-08-25T15:23:17;33.90;36.80
27561;DHT22;15003;47.476;11.990;2022-08-25T15:25:45;33.90;36.40
27561;DHT22;15003;47.476;11.990;2022-08-25T15:28:12;33.90;36.60
27561;DHT22;15003;47.476;11.990;2022-08-25T15:30:38;33.90;36.30
27561;DHT22;15003;47.476;11.990;2022-08-25T15:33:04;33.80;36.40
27561;DHT22;15003;47.476;11.990;2022-08-25T15:35:30;33.70;36.60
27561;DHT22;15003;47.476;11.990;2022-08-25T15:37:55;33.60;36.80
27561;DHT22;15003;47.476;11.990;2022-08-25T15:40:21;33.60;37.20
27561;DHT22;15003;47.476;11.990;2022-08-25T15:42:47;33.50;36.90
27561;DHT22;15003;47.476;11.990;2022-08-25T15:45:13;33.50;37.10
27561;DHT22;15003;47.476;11.990;2022-08-25T15:47:39;33.40;37.40
27561;DHT22;15003;47.476;11.990;2022-08-25T15:50:11;33.30;37.60
27561;DHT22;15003;47.476;11.990;2022-08-25T15:52:41;33.30;37.30
27561;DHT22;15003;47.476;11.990;2022-08-25T15:55:09;33.20;37.40
27561;DHT22;15003;47.476;11.990;2022-08-25T15:57:36;33.10;37.50
27561;DHT22;15003;47.476;11.990;2022-08-25T16:00:07;33.10;36.90
27561;DHT22;15003;47.476;11.990;2022-08-25T16:02:34;33.00;36.80
27561;DHT22;15003;47.476;11.990;2022-08-25T16:05:00;32.90;36.90
27561;DHT22;15003;47.476;11.990;2022-08-25T16:07:26;32.80;37.10
27561;DHT22;15003;47.476;11.990;2022-08-25T16:09:56;32.70;37.50
27561;DHT22;15003;47.476;11.990;2022-08-25T16:12:23;32.70;37.80
27561;DHT22;15003;47.476;11.990;2022-08-25T16:14:50;32.60;38.20
27561;DHT22;15003;47.476;11.990;2022-08-25T16:17:17;32.60;38.10
27561;DHT22;15003;47.476;11.990;2022-08-25T16:19:44;32.50;38.20
27561;DHT22;15003;47.476;11.990;2022-08-25T16:22:10;32.50;38.40
27561;DHT22;15003;47.476;11.990;2022-08-25T16:24:40;32.40;38.10
27561;DHT22;15003;47.476;11.990;2022-08-25T16:27:07;32.40;38.50
27561;DHT22;15003;47.476;11.990;2022-08-25T16:29:37;32.40;38.70
27561;DHT22;15003;47.476;11.990;2022-08-25T16:32:07;32.40;38.70
27561;DHT22;15003;47.476;11.990;2022-08-25T16:34:34;32.30;38.90
27561;DHT22;15003;47.476;11.990;2022-08-25T16:37:00;32.20;38.90
27561;DHT22;15003;47.476;11.990;2022-08-25T16:39:26;32.20;39.20
27561;DHT22;15003;47.476;11.990;2022-08-25T16:41:52;32.20;39.20
27561;DHT22;15003;47.476;11.990;2022-08-25T16:44:19;32.10;39.20
27561;DHT22;15003;47.476;11.990;2022-08-25T16:46:46;32.00;39.10
27561;DHT22;15003;47.476;11.990;2022-08-25T16:49:14;32.00;39.20
27561;DHT22;15003;47.476;11.990;2022-08-25T16:51:41;31.90;39.20
27561;DHT22;15003;47.476;11.990;2022-08-25T16:54:09;31.80;39.30
27561;DHT22;15003;47.476;11.990;2022-08-25T16:56:36;31.80;39.30
27561;DHT22;15003;47.476;11.990;2022-08-25T16:59:03;31.80;39.50
27561;DHT22;15003;47.476;11.990;2022-08-25T17:01:32;31.70;39.50
27561;DHT22;15003;47.476;11.990;2022-08-25T17:03:58;31.70;39.10
27561;DHT22;15003;47.476;11.990;2022-08-25T17:06:26;31.60;39.00
27561;DHT22;15003;47.476;11.990;2022-08-25T17:08:53;31.60;39.00
27561;DHT22;15003;47.476;11.990;2022-08-25T17:11:23;31.50;38.90
27561;DHT22;15003;47.476;11.990;2022-08-25T17:13:55;31.40;39.10
27561;DHT22;15003;47.476;11.990;2022-08-25T17:16:26;31.40;39.20
27561;DHT22;15003;47.476;11.990;2022-08-25T17:18:56;31.40;39.50
27561;DHT22;15003;47.476;11.990;2022-08-25T17:21:23;31.20;39.40
27561;DHT22;15003;47.476;11.990;2022-08-25T17:23:49;31.20;39.60
27561;DHT22;15003;47.476;11.990;2022-08-25T17:26:16;31.20;39.70
27561;DHT22;15003;47.476;11.990;2022-08-25T17:28:42;31.10;39.70
27561;DHT22;15003;47.476;11.990;2022-08-25T17:31:10;31.00;39.70
27561;DHT22;15003;47.476;11.990;2022-08-25T17:33:37;31.00;39.80
27561;DHT22;15003;47.476;11.990;2022-08-25T17:36:04;30.90;39.80
27561;DHT22;15003;47.476;11.990;2022-08-25T17:38:31;30.90;39.90
27561;DHT22;15003;47.476;11.990;2022-08-25T17:41:00;30.80;40.00
27561;DHT22;15003;47.476;11.990;2022-08-25T17:43:28;30.80;40.00